createdAt,value
2018-09-14T06:23:53.665Z,21.70
2018-09-14T06:26:22.097Z,22.23
2018-09-14T06:28:50.585Z,21.50
2018-09-14T06:31:19.059Z,22.57
2018-09-14T06:33:51.453Z,22.27
2018-09-14T06:36:21.686Z,19.97
2018-09-14T06:39:12.735Z,22.07
2018-09-14T06:41:41.297Z,22.00
2018-09-14T06:44:10.919Z,22.50
2018-09-14T06:46:39.369Z,22.73
2018-09-14T06:49:07.880Z,23.20
2018-09-14T06:51:37.935Z,23.13
2018-09-14T06:54:06.632Z,23.70
2018-09-14T06:56:35.099Z,23.77
2018-09-14T06:59:03.682Z,23.57
2018-09-14T07:01:32.178Z,24.50
2018-09-14T07:04:01.013Z,25.10
2018-09-14T07:06:29.670Z,24.70
2018-09-14T07:08:58.145Z,25.17
2018-09-14T07:11:26.689Z,24.63
2018-09-14T07:13:55.189Z,24.93
2018-09-14T07:16:23.693Z,26.13
2018-09-14T07:18:52.213Z,25.10
2018-09-14T07:21:20.729Z,25.20
2018-09-14T07:23:49.232Z,26.07
2018-09-14T07:26:21.012Z,24.73
2018-09-14T07:28:50.101Z,23.37
2018-09-14T07:31:18.713Z,24.57
2018-09-14T07:33:47.329Z,23.63
2018-09-14T07:36:15.812Z,25.07
2018-09-14T07:38:44.326Z,26.67
2018-09-14T07:41:12.808Z,24.70
2018-09-14T07:43:41.368Z,25.20
2018-09-14T07:46:09.846Z,26.33
2018-09-14T07:48:38.354Z,26.17
2018-09-14T07:51:07.193Z,27.50
2018-09-14T07:53:35.700Z,28.27
2018-09-14T07:56:04.179Z,27.07
2018-09-14T07:58:32.650Z,26.70
2018-09-14T08:01:01.330Z,25.73
2018-09-14T08:03:29.833Z,24.67
2018-09-14T08:05:58.364Z,24.83
2018-09-14T08:08:26.838Z,24.77
2018-09-14T08:10:55.345Z,24.83
2018-09-14T08:13:23.903Z,24.37
2018-09-14T08:15:52.397Z,23.23
2018-09-14T08:18:20.879Z,23.37
2018-09-14T08:20:49.394Z,23.07
2018-09-14T08:23:17.911Z,22.77
2018-09-14T08:25:46.429Z,22.80
2018-09-14T08:28:14.909Z,23.13
2018-09-14T08:30:43.426Z,22.73
2018-09-14T08:33:11.918Z,22.93
2018-09-14T08:35:40.458Z,21.93
2018-09-14T08:38:08.939Z,22.37
2018-09-14T08:40:37.434Z,21.67
2018-09-14T08:43:05.958Z,21.17
2018-09-14T08:45:34.461Z,21.43
2018-09-14T08:48:03.050Z,20.60
2018-09-14T08:50:31.514Z,21.73
2018-09-14T08:53:00.025Z,22.00
2018-09-14T08:55:28.558Z,21.60
2018-09-14T08:57:57.105Z,20.90
2018-09-14T09:00:25.725Z,20.90
2018-09-14T09:02:55.196Z,19.60
2018-09-14T09:05:24.702Z,19.87
2018-09-14T09:07:53.225Z,17.47
2018-09-14T09:10:21.773Z,17.53
2018-09-14T09:12:50.250Z,17.63
2018-09-14T09:15:18.866Z,18.10
2018-09-14T09:17:47.415Z,18.10
2018-09-14T09:20:16.304Z,17.03
2018-09-14T09:22:45.289Z,17.50
2018-09-14T09:25:13.838Z,20.27
2018-09-14T09:27:42.363Z,20.87
2018-09-14T09:30:10.896Z,20.13
2018-09-14T09:32:39.452Z,20.30
2018-09-14T09:35:08.006Z,19.37
2018-09-14T09:37:36.673Z,21.67
2018-09-14T09:40:05.275Z,21.77
2018-09-14T09:42:34.234Z,21.23
2018-09-14T09:45:02.754Z,21.37
2018-09-14T09:47:31.312Z,21.30
2018-09-14T09:49:59.887Z,20.97
2018-09-14T09:52:29.141Z,21.53
2018-09-14T09:54:57.677Z,21.33
2018-09-14T09:57:27.330Z,20.57
2018-09-14T09:59:57.605Z,18.83
2018-09-14T10:02:29.118Z,18.73
2018-09-14T10:05:09.974Z,19.10
2018-09-14T10:07:38.779Z,18.20
2018-09-14T10:10:10.750Z,17.83
2018-09-14T10:12:39.327Z,16.43
2018-09-14T10:15:18.554Z,16.63
2018-09-14T10:17:47.898Z,16.07
2018-09-14T10:20:19.571Z,17.17
2018-09-14T10:22:48.128Z,16.63
2018-09-14T10:25:16.617Z,17.90
2018-09-14T10:27:45.148Z,17.17
2018-09-14T10:30:18.840Z,16.17
2018-09-14T10:32:47.437Z,15.83
2018-09-14T10:35:15.966Z,15.93
2018-09-14T10:37:44.535Z,15.70
2018-09-14T10:40:13.107Z,15.50
2018-09-14T10:42:41.642Z,15.13
2018-09-14T10:45:10.196Z,13.53
2018-09-14T10:47:38.714Z,14.37
2018-09-14T10:50:07.309Z,13.97
2018-09-14T10:52:35.840Z,13.70
2018-09-14T10:55:04.374Z,13.43
2018-09-14T10:57:32.953Z,13.35
2018-09-14T11:00:01.460Z,13.58
2018-09-14T11:02:29.995Z,12.68
2018-09-14T11:04:58.473Z,13.05
2018-09-14T11:07:27.053Z,11.40
2018-09-14T11:09:55.603Z,10.50
2018-09-14T11:12:25.065Z,10.53
2018-09-14T11:14:54.643Z,11.55
2018-09-14T11:17:23.284Z,11.25
2018-09-14T11:19:57.414Z,10.30
2018-09-14T11:22:26.834Z,9.83
2018-09-14T11:24:58.790Z,9.85
2018-09-14T11:27:28.857Z,10.82
2018-09-14T11:29:57.438Z,12.33
2018-09-14T11:32:26.304Z,12.13
2018-09-14T11:34:56.728Z,14.30
2018-09-14T11:37:26.483Z,13.98
2018-09-14T11:39:57.216Z,15.68
2018-09-14T11:42:28.304Z,16.12
2018-09-14T11:45:01.635Z,14.30
2018-09-14T11:47:35.497Z,15.00
2018-09-14T11:50:04.191Z,13.95
2018-09-14T11:52:34.089Z,15.25
2018-09-14T11:55:06.824Z,13.93
2018-09-14T11:57:35.452Z,15.15
2018-09-14T12:00:04.091Z,14.07
2018-09-14T12:02:32.629Z,14.30
2018-09-14T12:05:01.199Z,14.60
2018-09-14T12:07:33.892Z,15.13
2018-09-14T12:10:02.424Z,13.62
2018-09-14T12:19:31.671Z,14.35
2018-09-14T12:22:00.242Z,14.20
2018-09-14T12:24:29.496Z,13.43
2018-09-14T12:26:58.222Z,13.05
2018-09-14T12:29:34.271Z,13.10
2018-09-14T12:32:02.841Z,13.03
2018-09-14T12:34:32.144Z,12.47
2018-09-14T12:37:10.217Z,12.80
2018-09-14T12:39:38.692Z,13.38
2018-09-14T12:42:07.206Z,12.75
2018-09-14T12:44:35.705Z,12.43
2018-09-14T12:47:04.339Z,12.60
2018-09-14T12:49:33.861Z,11.80
2018-09-14T12:52:03.148Z,11.73
2018-09-14T12:54:31.694Z,10.13
2018-09-14T12:57:00.249Z,11.40
2018-09-14T12:59:28.815Z,11.30
2018-09-14T13:01:57.322Z,11.43
2018-09-14T13:04:25.978Z,11.55
2018-09-14T13:06:54.503Z,11.48
2018-09-14T13:09:23.111Z,11.93
2018-09-14T13:11:51.614Z,11.53
2018-09-14T13:14:21.085Z,10.13
2018-09-14T13:16:50.152Z,10.30
2018-09-14T13:19:18.688Z,10.08
2018-09-14T13:21:47.208Z,9.43
2018-09-14T13:24:16.114Z,10.90
2018-09-14T13:26:44.648Z,10.08
2018-09-14T13:29:13.187Z,10.23
2018-09-14T13:31:41.683Z,11.20
2018-09-14T13:34:10.189Z,10.53
2018-09-14T13:36:38.686Z,11.22
2018-09-14T13:39:08.674Z,10.15
2018-09-14T13:41:37.182Z,10.80
2018-09-14T13:44:05.722Z,10.23
2018-09-14T13:46:34.188Z,9.40
2018-09-14T13:49:02.752Z,9.83
2018-09-14T13:51:31.244Z,10.65
2018-09-14T13:53:59.772Z,12.95
2018-09-14T13:56:28.293Z,12.75
2018-09-14T13:58:56.874Z,12.45
2018-09-14T14:01:25.450Z,13.05
2018-09-14T14:03:54.098Z,12.55
2018-09-14T14:06:22.589Z,11.85
2018-09-14T14:08:51.110Z,11.28
2018-09-14T14:11:19.651Z,11.08
2018-09-14T14:13:48.264Z,10.80
2018-09-14T14:16:18.126Z,11.78
2018-09-14T14:18:46.722Z,12.05
2018-09-14T14:21:18.806Z,9.88
2018-09-14T14:23:47.343Z,9.50
2018-09-14T14:26:15.850Z,12.03
2018-09-14T14:28:48.371Z,11.90
2018-09-14T14:31:16.862Z,10.68
2018-09-14T14:33:45.400Z,10.25
2018-09-14T14:36:14.679Z,8.70
2018-09-14T14:38:43.308Z,9.08
2018-09-14T14:41:11.832Z,9.68
2018-09-14T14:43:40.398Z,11.50
2018-09-14T14:46:09.007Z,11.08
2018-09-14T14:48:37.562Z,11.00
2018-09-14T14:51:06.101Z,11.33
2018-09-14T14:53:34.617Z,12.40
2018-09-14T14:56:03.184Z,11.18
2018-09-14T14:58:31.688Z,12.37
2018-09-14T15:01:00.204Z,11.63
2018-09-14T15:03:28.769Z,10.98
2018-09-14T15:05:57.456Z,10.58
2018-09-14T15:08:26.034Z,10.75
2018-09-14T15:10:54.535Z,9.03
2018-09-14T15:13:23.084Z,10.58
2018-09-14T15:15:51.822Z,9.25
2018-09-14T15:18:20.311Z,9.25
2018-09-14T15:20:48.849Z,9.15
2018-09-14T15:23:17.330Z,8.95
2018-09-14T15:25:45.904Z,9.70
2018-09-14T15:28:14.385Z,8.90
2018-09-14T15:30:42.885Z,8.00
2018-09-14T15:33:11.375Z,7.75
2018-09-14T15:35:39.902Z,6.90
2018-09-14T15:38:08.437Z,6.90
2018-09-14T15:40:36.995Z,7.20
2018-09-14T15:43:05.490Z,7.12
2018-09-14T15:45:34.019Z,6.87
2018-09-14T15:48:02.484Z,6.70
2018-09-14T15:50:31.053Z,6.40
2018-09-14T15:52:59.537Z,7.00
2018-09-14T15:55:28.099Z,6.30
2018-09-14T15:57:56.601Z,5.87
2018-09-14T16:00:25.107Z,5.90
2018-09-14T16:02:54.357Z,5.85
2018-09-14T16:05:22.861Z,5.65
2018-09-14T16:07:51.357Z,5.80
2018-09-14T16:10:19.865Z,5.58
2018-09-14T16:12:48.336Z,5.53
2018-09-14T16:15:16.841Z,5.47
2018-09-14T16:17:45.343Z,5.53
2018-09-14T16:20:13.841Z,5.60
2018-09-14T16:22:42.317Z,5.20
2018-09-14T16:25:23.069Z,5.85
2018-09-14T16:27:52.292Z,5.30
2018-09-14T16:30:20.785Z,5.58
2018-09-14T16:32:49.406Z,5.47
2018-09-14T16:35:17.943Z,5.80
2018-09-14T16:37:46.437Z,5.22
2018-09-14T16:40:14.973Z,5.70
2018-09-14T16:42:43.455Z,5.78
2018-09-14T16:45:12.030Z,5.33
2018-09-14T16:47:40.646Z,5.47
2018-09-14T16:50:18.746Z,5.87
2018-09-14T16:52:48.362Z,5.70
2018-09-14T16:55:16.889Z,5.65
2018-09-14T16:57:45.398Z,5.60
2018-09-14T17:00:13.906Z,5.40
2018-09-14T17:02:42.488Z,5.57
2018-09-14T17:05:10.962Z,5.43
2018-09-14T17:07:40.328Z,6.40
2018-09-14T17:10:09.913Z,6.40
2018-09-14T17:12:38.410Z,6.03
2018-09-14T17:15:07.727Z,5.90
2018-09-14T17:17:36.321Z,6.03
2018-09-14T17:20:05.062Z,5.73
2018-09-14T17:22:33.583Z,5.80
2018-09-14T17:25:02.210Z,5.60
2018-09-14T17:27:30.767Z,6.20
2018-09-14T17:29:59.277Z,6.47
2018-09-14T17:32:27.799Z,6.30
2018-09-14T17:34:56.269Z,6.43
2018-09-14T17:37:24.778Z,6.10
2018-09-14T17:39:53.261Z,6.40
2018-09-14T17:42:21.813Z,6.17
2018-09-14T17:44:50.313Z,6.47
2018-09-14T17:47:18.887Z,6.70
2018-09-14T17:49:47.370Z,7.20
2018-09-14T17:52:15.869Z,7.37
2018-09-14T17:54:44.417Z,8.13
2018-09-14T17:57:12.947Z,7.80
2018-09-14T17:59:41.454Z,6.63
2018-09-14T18:02:09.949Z,6.47
2018-09-14T18:04:38.433Z,7.27
2018-09-14T18:07:06.978Z,7.50
2018-09-14T18:09:35.478Z,7.07
2018-09-14T18:12:04.027Z,7.53
2018-09-14T18:14:32.486Z,7.87
2018-09-14T18:17:00.981Z,7.60
2018-09-14T18:19:29.468Z,9.03
2018-09-14T18:21:58.001Z,8.87
2018-09-14T18:24:26.449Z,8.97
2018-09-14T18:26:54.992Z,8.50
2018-09-14T18:29:23.457Z,8.83
2018-09-14T18:31:51.971Z,9.27
2018-09-14T18:34:20.458Z,9.13
2018-09-14T18:36:48.995Z,9.10
2018-09-14T18:39:17.469Z,9.17
2018-09-14T18:41:45.991Z,9.40
2018-09-14T18:44:14.506Z,9.23
2018-09-14T18:46:43.108Z,9.73
2018-09-14T18:49:11.610Z,9.80
2018-09-14T18:51:40.147Z,11.57
2018-09-14T18:54:08.807Z,11.20
2018-09-14T18:56:37.306Z,11.37
2018-09-14T18:59:06.021Z,9.80
2018-09-14T19:01:34.530Z,9.07
2018-09-14T19:04:03.028Z,9.50
2018-09-14T19:06:31.555Z,10.90
2018-09-14T19:09:00.039Z,10.43
2018-09-14T19:11:28.550Z,11.20
2018-09-14T19:13:57.037Z,10.63
2018-09-14T19:16:25.566Z,11.27
2018-09-14T19:18:54.065Z,11.20
2018-09-14T19:21:22.593Z,10.93
2018-09-14T19:23:51.098Z,12.17
2018-09-14T19:26:19.575Z,12.33
2018-09-14T19:28:48.074Z,11.63
2018-09-14T19:31:16.594Z,11.70
2018-09-14T19:33:45.160Z,11.17
2018-09-14T19:36:13.710Z,11.27
2018-09-14T19:38:42.278Z,12.33
2018-09-14T19:41:10.774Z,11.83
2018-09-14T19:43:39.302Z,11.93
2018-09-14T19:46:07.836Z,12.17
2018-09-14T19:48:36.361Z,12.00
2018-09-14T19:51:04.874Z,12.33
2018-09-14T19:53:38.401Z,12.03
2018-09-14T19:56:06.899Z,12.70
2018-09-14T19:58:35.403Z,13.03
2018-09-14T20:01:03.895Z,12.97
2018-09-14T20:03:32.428Z,13.57
2018-09-14T20:06:00.968Z,13.33
2018-09-14T20:08:29.461Z,13.87
2018-09-14T20:10:57.965Z,13.33
2018-09-14T20:13:26.482Z,13.47
2018-09-14T20:15:54.982Z,14.03
2018-09-14T20:18:23.603Z,14.83
2018-09-14T20:20:52.062Z,14.13
2018-09-14T20:23:20.654Z,14.37
2018-09-14T20:25:49.205Z,14.33
2018-09-14T20:28:17.701Z,13.50
2018-09-14T20:30:46.181Z,14.97
2018-09-14T20:33:14.725Z,14.50
2018-09-14T20:35:43.194Z,13.97
2018-09-14T20:38:11.730Z,14.00
2018-09-14T20:40:40.237Z,13.73
2018-09-14T20:43:08.802Z,14.27
2018-09-14T20:45:37.342Z,13.50
2018-09-14T20:48:05.989Z,14.23
2018-09-14T20:50:34.498Z,13.87
2018-09-14T20:53:03.030Z,14.80
2018-09-14T20:55:32.153Z,13.73
2018-09-14T20:58:00.707Z,14.27
2018-09-14T21:00:30.958Z,14.83
2018-09-14T21:02:59.524Z,14.97
2018-09-14T21:05:29.751Z,14.40
2018-09-14T21:07:58.434Z,14.53
2018-09-14T21:10:28.719Z,14.33
2018-09-14T21:12:57.225Z,13.60
2018-09-14T21:15:25.777Z,14.00
2018-09-14T21:17:54.302Z,13.73
2018-09-14T21:20:22.828Z,14.03
2018-09-14T21:22:51.415Z,13.30
2018-09-14T21:25:19.959Z,14.37
2018-09-14T21:27:48.562Z,14.13
2018-09-14T21:30:17.226Z,14.07
2018-09-14T21:32:45.756Z,14.10
2018-09-14T21:35:14.273Z,14.17
2018-09-14T21:37:42.787Z,14.47
2018-09-14T21:40:13.923Z,13.50
2018-09-14T21:42:42.448Z,13.97
2018-09-14T21:45:11.289Z,14.03
2018-09-14T21:47:39.836Z,14.87
2018-09-14T21:50:08.383Z,14.40
2018-09-14T21:52:36.883Z,14.37
2018-09-14T21:55:05.526Z,13.67
2018-09-14T21:57:34.038Z,15.50
2018-09-14T22:00:09.315Z,14.70
2018-09-14T22:02:37.799Z,14.70
2018-09-14T22:05:06.546Z,14.50
2018-09-14T22:07:35.058Z,13.83
2018-09-14T22:10:03.623Z,14.07
2018-09-14T22:12:32.125Z,14.03
2018-09-14T22:15:00.634Z,13.97
2018-09-14T22:17:29.145Z,14.47
2018-09-14T22:19:57.698Z,15.03
2018-09-14T22:22:26.170Z,14.27
2018-09-14T22:24:55.006Z,14.07
2018-09-14T22:27:23.500Z,14.40
2018-09-14T22:29:52.004Z,14.57
2018-09-14T22:32:20.488Z,13.17
2018-09-14T22:34:49.143Z,14.47
2018-09-14T22:37:17.644Z,13.50
2018-09-14T22:39:46.169Z,13.60
2018-09-14T22:42:14.659Z,13.60
2018-09-14T22:44:43.172Z,13.33
2018-09-14T22:47:11.673Z,13.07
2018-09-14T22:49:40.200Z,13.57
2018-09-14T22:52:08.868Z,13.40
2018-09-14T22:54:37.394Z,14.20
2018-09-14T22:57:05.880Z,13.23
2018-09-14T22:59:34.410Z,13.37
2018-09-14T23:02:02.909Z,13.37
2018-09-14T23:04:31.424Z,13.20
2018-09-14T23:06:59.952Z,13.57
2018-09-14T23:09:28.463Z,13.30
2018-09-14T23:11:56.944Z,13.40
2018-09-14T23:14:25.449Z,13.60
2018-09-14T23:16:53.938Z,13.37
2018-09-14T23:19:22.449Z,13.83
2018-09-14T23:21:50.935Z,13.90
2018-09-14T23:24:19.454Z,14.30
2018-09-14T23:26:47.980Z,14.43
2018-09-14T23:29:16.486Z,15.57
2018-09-14T23:31:44.989Z,13.33
2018-09-14T23:39:58.597Z,14.60
2018-09-14T23:45:19.810Z,13.50
2018-09-14T23:47:48.283Z,13.93
2018-09-14T23:50:16.808Z,14.03
2018-09-14T23:52:45.305Z,14.67
